createdAt,value
2022-12-01T00:01:59.349Z,100.00
2022-12-01T00:04:25.951Z,100.00
2022-12-01T00:06:52.626Z,100.00
2022-12-01T00:09:20.652Z,100.00
2022-12-01T00:11:47.469Z,100.00
2022-12-01T00:14:14.054Z,100.00
2022-12-01T00:16:40.652Z,100.00
2022-12-01T00:19:07.439Z,100.00
2022-12-01T00:21:34.022Z,100.00
2022-12-01T00:24:00.550Z,100.00
2022-12-01T00:26:28.688Z,100.00
2022-12-01T00:28:56.664Z,100.00
2022-12-01T00:31:24.109Z,100.00
2022-12-01T00:33:50.954Z,100.00
2022-12-01T00:36:17.535Z,100.00
2022-12-01T00:38:44.083Z,100.00
2022-12-01T00:41:10.955Z,100.00
2022-12-01T00:43:38.934Z,100.00
2022-12-01T00:46:05.700Z,100.00
2022-12-01T00:48:32.392Z,100.00
2022-12-01T00:50:59.069Z,100.00
2022-12-01T00:53:25.635Z,100.00
2022-12-01T00:55:52.237Z,100.00
2022-12-01T00:58:18.812Z,100.00
2022-12-01T01:00:46.703Z,100.00
2022-12-01T01:03:13.471Z,100.00
2022-12-01T01:05:42.158Z,100.00
2022-12-01T01:08:09.779Z,100.00
2022-12-01T01:10:38.096Z,100.00
2022-12-01T01:13:05.068Z,100.00
2022-12-01T01:15:31.567Z,100.00
2022-12-01T01:17:59.651Z,100.00
2022-12-01T01:20:26.369Z,100.00
2022-12-01T01:22:53.096Z,100.00
2022-12-01T01:25:19.630Z,100.00
2022-12-01T01:27:46.203Z,100.00
2022-12-01T01:30:15.490Z,100.00
2022-12-01T01:32:42.104Z,100.00
2022-12-01T01:35:10.257Z,100.00
2022-12-01T01:37:36.902Z,100.00
2022-12-01T01:40:04.334Z,100.00
2022-12-01T01:42:30.860Z,100.00
2022-12-01T01:44:58.610Z,100.00
2022-12-01T01:47:27.927Z,100.00
2022-12-01T01:49:57.202Z,100.00
2022-12-01T01:52:25.387Z,100.00
2022-12-01T01:54:55.538Z,100.00
2022-12-01T01:57:26.733Z,100.00
2022-12-01T01:59:58.050Z,100.00
2022-12-01T02:02:24.670Z,100.00
2022-12-01T02:04:56.834Z,100.00
2022-12-01T02:07:24.798Z,100.00
2022-12-01T02:09:52.669Z,100.00
2022-12-01T02:12:34.296Z,100.00
2022-12-01T02:15:12.947Z,100.00
2022-12-01T02:17:47.745Z,100.00
2022-12-01T02:20:45.458Z,100.00
2022-12-01T02:23:52.854Z,100.00
2022-12-01T02:26:36.290Z,100.00
2022-12-01T02:29:45.581Z,100.00
2022-12-01T02:32:21.890Z,100.00
2022-12-01T02:34:57.494Z,100.00
2022-12-01T02:37:31.813Z,100.00
2022-12-01T02:40:05.839Z,100.00
2022-12-01T02:42:39.574Z,100.00
2022-12-01T02:45:13.415Z,100.00
2022-12-01T02:47:43.749Z,100.00
2022-12-01T02:50:11.687Z,100.00
2022-12-01T02:52:40.042Z,100.00
2022-12-01T02:55:07.176Z,100.00
2022-12-01T02:57:33.717Z,100.00
2022-12-01T03:00:00.993Z,100.00
2022-12-01T03:02:35.432Z,100.00
2022-12-01T03:05:07.970Z,100.00
2022-12-01T03:07:45.847Z,100.00
2022-12-01T03:10:21.525Z,100.00
2022-12-01T03:13:00.302Z,100.00
2022-12-01T03:15:34.002Z,100.00
2022-12-01T03:18:09.399Z,100.00
2022-12-01T03:20:42.555Z,100.00
2022-12-01T03:23:13.402Z,100.00
2022-12-01T03:25:44.024Z,100.00
2022-12-01T03:28:21.304Z,100.00
2022-12-01T03:30:52.555Z,100.00
2022-12-01T03:33:25.345Z,100.00
2022-12-01T03:35:58.331Z,100.00
2022-12-01T03:38:26.793Z,100.00
2022-12-01T03:40:58.137Z,100.00
2022-12-01T03:43:28.107Z,100.00
2022-12-01T03:45:58.661Z,100.00
2022-12-01T03:48:26.780Z,100.00
2022-12-01T03:51:01.733Z,100.00
2022-12-01T03:53:38.008Z,100.00
2022-12-01T03:56:07.309Z,100.00
2022-12-01T03:58:37.920Z,100.00
2022-12-01T04:01:05.428Z,100.00
2022-12-01T04:03:32.012Z,100.00
2022-12-01T04:06:00.588Z,100.00
2022-12-01T04:08:27.453Z,100.00
2022-12-01T04:10:53.934Z,100.00
2022-12-01T04:13:20.496Z,100.00
2022-12-01T04:15:47.080Z,100.00
2022-12-01T04:18:13.683Z,100.00
2022-12-01T04:20:40.234Z,100.00
2022-12-01T04:23:08.108Z,100.00
2022-12-01T04:25:34.597Z,100.00
2022-12-01T04:28:01.160Z,100.00
2022-12-01T04:30:27.694Z,100.00
2022-12-01T04:32:54.262Z,100.00
2022-12-01T04:35:20.954Z,100.00
2022-12-01T04:37:47.445Z,100.00
2022-12-01T04:40:15.642Z,100.00
2022-12-01T04:42:42.190Z,100.00
2022-12-01T04:45:10.035Z,100.00
2022-12-01T04:47:36.724Z,100.00
2022-12-01T04:50:03.553Z,100.00
2022-12-01T04:52:35.009Z,100.00
2022-12-01T04:55:02.496Z,100.00
2022-12-01T04:57:30.425Z,100.00
2022-12-01T04:59:57.083Z,100.00
2022-12-01T05:02:23.705Z,100.00
2022-12-01T05:04:50.244Z,100.00
2022-12-01T05:07:16.897Z,100.00
2022-12-01T05:09:43.438Z,100.00
2022-12-01T05:12:09.984Z,100.00
2022-12-01T05:14:37.867Z,100.00
2022-12-01T05:17:04.433Z,100.00
2022-12-01T05:19:30.974Z,100.00
2022-12-01T05:21:57.662Z,100.00
2022-12-01T05:24:24.356Z,100.00
2022-12-01T05:26:51.093Z,100.00
2022-12-01T05:29:17.881Z,100.00
2022-12-01T05:31:46.675Z,100.00
2022-12-01T05:34:13.721Z,100.00
2022-12-01T05:36:40.285Z,100.00
2022-12-01T05:39:07.025Z,100.00
2022-12-01T05:41:33.596Z,100.00
2022-12-01T05:44:00.194Z,100.00
2022-12-01T05:46:26.830Z,100.00
2022-12-01T05:48:54.811Z,100.00
2022-12-01T05:51:21.542Z,100.00
2022-12-01T05:53:48.129Z,100.00
2022-12-01T05:56:14.866Z,100.00
2022-12-01T05:58:41.434Z,100.00
2022-12-01T06:01:08.185Z,100.00
2022-12-01T06:03:34.896Z,100.00
2022-12-01T06:06:02.848Z,100.00
2022-12-01T06:08:29.565Z,100.00
2022-12-01T06:10:56.265Z,100.00
2022-12-01T06:13:22.848Z,100.00
2022-12-01T06:15:56.994Z,100.00
2022-12-01T06:18:24.321Z,100.00
2022-12-01T06:20:51.110Z,100.00
2022-12-01T06:23:19.050Z,100.00
2022-12-01T06:25:45.586Z,100.00
2022-12-01T06:28:12.158Z,100.00
2022-12-01T06:30:38.751Z,100.00
2022-12-01T06:33:05.603Z,100.00
2022-12-01T06:35:32.329Z,100.00
2022-12-01T06:37:59.116Z,100.00
2022-12-01T06:40:28.166Z,100.00
2022-12-01T06:42:54.834Z,100.00
2022-12-01T06:45:21.340Z,100.00
2022-12-01T06:47:48.107Z,100.00
2022-12-01T06:50:14.866Z,100.00
2022-12-01T06:52:41.410Z,100.00
2022-12-01T06:55:08.949Z,100.00
2022-12-01T06:57:37.048Z,100.00
2022-12-01T07:00:04.750Z,100.00
2022-12-01T07:02:31.719Z,100.00
2022-12-01T07:04:58.453Z,100.00
2022-12-01T07:07:25.035Z,100.00
2022-12-01T07:09:51.979Z,100.00
2022-12-01T07:12:18.614Z,99.59
2022-12-01T07:14:46.695Z,99.33
2022-12-01T07:17:13.197Z,100.00
2022-12-01T07:19:39.778Z,100.00
2022-12-01T07:22:06.285Z,99.58
2022-12-01T07:24:32.829Z,100.00
2022-12-01T07:26:59.458Z,100.00
2022-12-01T07:29:25.992Z,99.72
2022-12-01T07:31:53.891Z,99.85
2022-12-01T07:34:20.484Z,99.83
2022-12-01T07:36:47.044Z,98.30
2022-12-01T07:39:13.573Z,98.03
2022-12-01T07:41:40.077Z,98.47
2022-12-01T07:44:07.129Z,98.20
2022-12-01T07:46:33.729Z,98.43
2022-12-01T07:49:05.081Z,98.20
2022-12-01T07:51:31.727Z,97.29
2022-12-01T07:54:02.299Z,96.91
2022-12-01T07:56:29.153Z,97.31
2022-12-01T07:58:55.768Z,97.11
2022-12-01T08:01:23.841Z,97.08
2022-12-01T08:03:51.915Z,97.30
2022-12-01T08:06:20.319Z,96.76
2022-12-01T08:08:47.402Z,95.50
2022-12-01T08:11:16.114Z,94.88
2022-12-01T08:13:43.652Z,95.79
2022-12-01T08:16:12.997Z,95.36
2022-12-01T08:18:40.853Z,95.51
2022-12-01T08:21:09.194Z,95.69
2022-12-01T08:23:37.193Z,94.69
2022-12-01T08:26:05.755Z,94.35
2022-12-01T08:28:35.184Z,95.54
2022-12-01T08:31:07.619Z,93.67
2022-12-01T08:33:34.171Z,94.29
2022-12-01T08:36:02.007Z,94.49
2022-12-01T08:38:28.548Z,94.54
2022-12-01T08:41:00.201Z,92.70
2022-12-01T08:43:56.002Z,92.63
2022-12-01T08:46:14.126Z,92.36
2022-12-01T08:48:40.904Z,92.05
2022-12-01T08:51:09.591Z,90.92
2022-12-01T08:53:42.564Z,92.04
2022-12-01T08:56:16.512Z,92.51
2022-12-01T08:58:43.350Z,92.19
2022-12-01T09:01:12.855Z,92.63
2022-12-01T09:03:39.978Z,92.60
2022-12-01T09:06:08.759Z,92.28
2022-12-01T09:08:36.458Z,92.92
2022-12-01T09:11:04.778Z,93.96
2022-12-01T09:13:34.424Z,93.06
2022-12-01T09:16:04.383Z,92.82
2022-12-01T09:18:31.208Z,91.03
2022-12-01T09:20:58.658Z,91.08
2022-12-01T09:23:26.246Z,91.83
2022-12-01T09:25:53.694Z,91.86
2022-12-01T09:28:20.378Z,91.17
2022-12-01T09:30:48.271Z,92.22
2022-12-01T09:33:15.037Z,92.41
2022-12-01T09:35:41.600Z,92.44
2022-12-01T09:38:08.139Z,92.59
2022-12-01T09:40:37.165Z,92.29
2022-12-01T09:43:05.842Z,91.78
2022-12-01T09:45:36.657Z,90.55
2022-12-01T09:48:06.513Z,91.58
2022-12-01T09:50:34.237Z,89.79
2022-12-01T09:53:06.249Z,90.59
2022-12-01T09:55:34.188Z,90.91
2022-12-01T09:58:03.378Z,90.67
2022-12-01T10:00:32.841Z,91.34
2022-12-01T10:03:10.172Z,90.45
2022-12-01T10:06:10.215Z,89.72
2022-12-01T10:08:34.810Z,90.37
2022-12-01T10:11:08.405Z,89.39
2022-12-01T10:13:35.002Z,90.27
2022-12-01T10:16:09.591Z,88.60
2022-12-01T10:18:49.579Z,90.04
2022-12-01T10:21:28.118Z,89.80
2022-12-01T10:24:09.550Z,90.60
2022-12-01T10:26:49.623Z,90.00
2022-12-01T10:29:26.697Z,88.41
2022-12-01T10:31:54.721Z,89.22
2022-12-01T10:34:25.116Z,90.60
2022-12-01T10:36:51.713Z,89.75
2022-12-01T10:39:22.541Z,89.70
2022-12-01T10:41:50.031Z,90.18
2022-12-01T10:44:18.334Z,90.29
2022-12-01T10:46:49.290Z,89.31
2022-12-01T10:49:17.398Z,90.27
2022-12-01T10:51:52.581Z,90.18
2022-12-01T10:54:20.816Z,90.41
2022-12-01T10:56:49.014Z,90.39
2022-12-01T10:59:26.850Z,89.92
2022-12-01T11:01:54.485Z,90.17
2022-12-01T11:04:40.192Z,89.38
2022-12-01T11:07:15.886Z,89.83
2022-12-01T11:09:46.050Z,90.09
2022-12-01T11:12:16.589Z,89.61
2022-12-01T11:14:45.617Z,90.63
2022-12-01T11:17:25.078Z,90.63
2022-12-01T11:19:51.927Z,90.03
2022-12-01T11:22:23.237Z,90.32
2022-12-01T11:25:01.168Z,90.96
2022-12-01T11:27:30.533Z,90.31
2022-12-01T11:29:59.990Z,89.95
2022-12-01T11:32:29.037Z,90.87
2022-12-01T11:34:58.666Z,91.23
2022-12-01T11:37:36.514Z,91.72
2022-12-01T11:40:13.463Z,90.84
2022-12-01T11:42:40.708Z,90.36
2022-12-01T11:45:23.687Z,90.98
2022-12-01T11:48:02.751Z,90.30
2022-12-01T11:50:32.549Z,90.37
2022-12-01T11:53:01.295Z,90.33
2022-12-01T11:55:29.251Z,91.11
2022-12-01T11:58:02.751Z,90.91
2022-12-01T12:00:33.876Z,91.69
2022-12-01T12:03:18.586Z,90.42
2022-12-01T12:09:11.343Z,91.66
2022-12-01T12:11:45.016Z,90.44
2022-12-01T12:14:31.430Z,91.62
2022-12-01T12:17:15.008Z,91.33
2022-12-01T12:20:09.806Z,91.38
2022-12-01T12:22:46.900Z,91.22
2022-12-01T12:25:27.574Z,90.97
2022-12-01T12:28:13.426Z,90.85
2022-12-01T12:30:46.861Z,90.59
2022-12-01T12:33:48.865Z,90.31
2022-12-01T12:36:27.443Z,90.88
2022-12-01T12:39:05.808Z,90.61
2022-12-01T12:41:38.682Z,89.31
2022-12-01T12:44:33.811Z,88.78
2022-12-01T12:47:14.521Z,90.18
2022-12-01T12:49:47.590Z,90.07
2022-12-01T12:52:18.071Z,91.40
2022-12-01T12:54:50.719Z,90.88
2022-12-01T12:57:26.183Z,89.87
2022-12-01T12:59:57.508Z,90.55
2022-12-01T13:02:31.728Z,90.99
2022-12-01T13:05:04.722Z,90.83
2022-12-01T13:07:39.247Z,91.34
2022-12-01T13:10:16.127Z,90.46
2022-12-01T13:12:53.645Z,90.81
2022-12-01T13:15:21.887Z,90.50
2022-12-01T13:17:51.287Z,89.60
2022-12-01T13:20:22.053Z,89.46
2022-12-01T13:22:50.116Z,90.41
2022-12-01T13:25:26.969Z,90.12
2022-12-01T13:27:56.961Z,90.26
2022-12-01T13:30:26.937Z,90.53
2022-12-01T13:32:59.672Z,89.89
2022-12-01T13:35:29.385Z,89.45
2022-12-01T13:38:12.245Z,89.86
2022-12-01T13:40:39.315Z,89.40
2022-12-01T13:43:17.400Z,90.36
2022-12-01T13:45:44.137Z,90.30
2022-12-01T13:48:28.335Z,89.59
2022-12-01T13:50:58.813Z,90.49
2022-12-01T13:53:28.723Z,89.34
2022-12-01T13:56:00.839Z,90.08
2022-12-01T13:58:44.825Z,90.96
2022-12-01T14:01:43.406Z,90.95
2022-12-01T14:04:31.816Z,90.23
2022-12-01T14:07:33.377Z,90.48
2022-12-01T14:10:25.599Z,91.25
2022-12-01T14:12:54.782Z,91.09
2022-12-01T14:15:30.376Z,91.75
2022-12-01T14:18:03.834Z,91.07
2022-12-01T14:20:33.923Z,90.87
2022-12-01T14:23:17.103Z,90.73
2022-12-01T14:25:58.401Z,91.10
2022-12-01T14:28:58.177Z,90.35
2022-12-01T14:32:05.854Z,90.68
2022-12-01T14:34:33.884Z,90.92
2022-12-01T14:37:05.905Z,91.88
2022-12-01T14:39:34.733Z,91.17
2022-12-01T14:42:03.964Z,91.87
2022-12-01T14:44:36.246Z,92.15
2022-12-01T14:47:12.462Z,91.80
2022-12-01T14:49:43.583Z,91.00
2022-12-01T14:52:19.151Z,92.18
2022-12-01T14:54:49.615Z,92.48
2022-12-01T14:57:21.808Z,92.74
2022-12-01T15:00:02.202Z,91.77
2022-12-01T15:02:30.705Z,92.24
2022-12-01T15:05:09.441Z,92.76
2022-12-01T15:07:38.121Z,92.34
2022-12-01T15:10:05.985Z,93.07
2022-12-01T15:12:32.939Z,92.78
2022-12-01T15:14:59.550Z,92.16
2022-12-01T15:17:30.945Z,92.81
2022-12-01T15:19:57.874Z,93.09
2022-12-01T15:22:29.270Z,93.38
2022-12-01T15:25:04.897Z,93.19
2022-12-01T15:27:32.760Z,93.73
2022-12-01T15:30:01.290Z,94.51
2022-12-01T15:32:30.798Z,94.53
2022-12-01T15:34:59.068Z,94.18
2022-12-01T15:37:27.748Z,94.33
2022-12-01T15:40:10.080Z,94.76
2022-12-01T15:42:44.744Z,95.03
2022-12-01T15:45:18.946Z,94.63
2022-12-01T15:47:48.698Z,95.06
2022-12-01T15:50:27.579Z,95.37
2022-12-01T15:52:54.428Z,95.62
2022-12-01T15:55:25.648Z,95.51
2022-12-01T15:57:52.562Z,95.76
2022-12-01T16:00:20.007Z,95.77
2022-12-01T16:02:52.306Z,95.59
2022-12-01T16:05:22.455Z,96.29
2022-12-01T16:10:37.169Z,96.63
2022-12-01T16:13:35.199Z,96.51
2022-12-01T16:16:19.291Z,96.46
2022-12-01T16:18:55.091Z,95.95
2022-12-01T16:21:22.097Z,96.14
2022-12-01T16:23:49.021Z,96.96
2022-12-01T16:26:15.775Z,96.39
2022-12-01T16:28:42.347Z,96.75
2022-12-01T16:31:18.600Z,97.59
2022-12-01T16:33:45.771Z,97.31
2022-12-01T16:36:13.659Z,97.54
2022-12-01T16:38:40.506Z,97.98
2022-12-01T16:41:15.699Z,97.68
2022-12-01T16:43:59.119Z,97.94
2022-12-01T16:46:29.046Z,96.98
2022-12-01T16:48:55.649Z,98.31
2022-12-01T16:51:30.046Z,98.71
2022-12-01T16:54:09.341Z,98.50
2022-12-01T16:56:36.134Z,98.80
2022-12-01T16:59:02.784Z,97.57
2022-12-01T17:01:29.662Z,98.05
2022-12-01T17:03:56.658Z,97.89
2022-12-01T17:06:24.517Z,97.93
2022-12-01T17:08:51.313Z,98.22
2022-12-01T17:11:17.991Z,98.87
2022-12-01T17:13:44.556Z,98.69
2022-12-01T17:16:16.756Z,98.63
2022-12-01T17:18:44.835Z,98.66
2022-12-01T17:21:11.634Z,98.67
2022-12-01T17:23:39.720Z,98.85
2022-12-01T17:26:08.893Z,99.14
2022-12-01T17:28:35.814Z,98.65
2022-12-01T17:31:03.724Z,98.68
2022-12-01T17:33:31.865Z,99.14
2022-12-01T17:36:03.676Z,99.09
2022-12-01T17:38:30.350Z,98.83
2022-12-01T17:41:05.731Z,99.20
2022-12-01T17:43:33.166Z,99.64
2022-12-01T17:46:00.206Z,99.43
2022-12-01T17:48:26.953Z,99.16
2022-12-01T17:50:53.513Z,99.25
2022-12-01T17:53:20.125Z,99.01
2022-12-01T17:55:46.700Z,99.57
2022-12-01T17:58:14.668Z,99.79
2022-12-01T18:00:41.237Z,99.33
2022-12-01T18:03:07.997Z,99.52
2022-12-01T18:05:34.820Z,99.88
2022-12-01T18:08:01.425Z,99.56
2022-12-01T18:10:28.117Z,99.21
2022-12-01T18:12:54.639Z,100.00
2022-12-01T18:15:22.630Z,100.00
2022-12-01T18:17:49.204Z,99.92
2022-12-01T18:20:19.190Z,99.95
2022-12-01T18:22:46.021Z,99.91
2022-12-01T18:25:13.050Z,99.59
2022-12-01T18:27:39.596Z,98.68
2022-12-01T18:30:07.460Z,98.61
2022-12-01T18:32:35.312Z,98.49
2022-12-01T18:35:02.022Z,97.76
2022-12-01T18:37:28.624Z,97.91
2022-12-01T18:39:55.563Z,98.17
2022-12-01T18:42:22.163Z,97.76
2022-12-01T18:44:49.033Z,97.88
2022-12-01T18:47:15.757Z,97.29
2022-12-01T18:49:43.842Z,97.17
2022-12-01T18:52:10.485Z,97.13
2022-12-01T18:54:37.182Z,97.77
2022-12-01T18:57:03.835Z,97.75
2022-12-01T18:59:30.397Z,97.76
2022-12-01T19:01:57.059Z,97.53
2022-12-01T19:04:23.711Z,97.91
2022-12-01T19:06:51.679Z,98.07
2022-12-01T19:09:18.339Z,97.87
2022-12-01T19:11:44.971Z,98.06
2022-12-01T19:14:15.637Z,98.13
2022-12-01T19:16:42.735Z,98.25
2022-12-01T19:19:10.038Z,98.14
2022-12-01T19:21:36.565Z,98.77
2022-12-01T19:24:05.007Z,98.94
2022-12-01T19:26:31.555Z,99.29
2022-12-01T19:28:58.341Z,99.37
2022-12-01T19:31:25.001Z,99.34
2022-12-01T19:33:52.308Z,99.46
2022-12-01T19:36:22.286Z,99.98
2022-12-01T19:38:50.689Z,100.00
2022-12-01T19:41:21.188Z,100.00
2022-12-01T19:43:49.814Z,99.54
2022-12-01T19:46:20.543Z,99.76
2022-12-01T19:48:53.576Z,99.61
2022-12-01T19:51:24.375Z,100.00
2022-12-01T19:53:51.544Z,99.47
2022-12-01T19:56:19.658Z,99.20
2022-12-01T19:58:46.411Z,98.99
2022-12-01T20:01:14.642Z,98.61
2022-12-01T20:03:42.232Z,99.09
2022-12-01T20:06:10.465Z,99.08
2022-12-01T20:08:37.141Z,98.74
2022-12-01T20:11:04.561Z,99.03
2022-12-01T20:13:33.413Z,99.59
2022-12-01T20:16:04.177Z,99.21
2022-12-01T20:18:30.920Z,99.24
2022-12-01T20:21:05.747Z,98.98
2022-12-01T20:23:32.533Z,99.38
2022-12-01T20:26:00.356Z,99.55
2022-12-01T20:28:27.006Z,99.63
2022-12-01T20:30:57.924Z,99.46
2022-12-01T20:33:25.530Z,99.54
2022-12-01T20:35:52.475Z,99.37
2022-12-01T20:38:24.281Z,99.13
2022-12-01T20:40:53.784Z,99.25
2022-12-01T20:43:20.382Z,99.11
2022-12-01T20:45:47.073Z,99.51
2022-12-01T20:48:15.487Z,98.65
2022-12-01T20:50:42.076Z,99.07
2022-12-01T20:53:09.660Z,99.14
2022-12-01T20:55:36.564Z,98.96
2022-12-01T20:58:04.049Z,99.17
2022-12-01T21:00:31.185Z,98.83
2022-12-01T21:02:57.853Z,99.05
2022-12-01T21:05:26.722Z,99.10
2022-12-01T21:07:54.093Z,99.28
2022-12-01T21:10:21.170Z,99.28
2022-12-01T21:12:51.863Z,99.40
2022-12-01T21:15:25.091Z,99.70
2022-12-01T21:17:56.177Z,100.00
2022-12-01T21:20:30.320Z,100.00
2022-12-01T21:23:01.591Z,100.00
2022-12-01T21:25:28.255Z,99.56
2022-12-01T21:27:57.862Z,99.06
2022-12-01T21:30:24.814Z,99.44
2022-12-01T21:32:52.808Z,99.09
2022-12-01T21:35:22.731Z,99.17
2022-12-01T21:37:54.602Z,99.36
2022-12-01T21:40:23.144Z,98.82
2022-12-01T21:42:50.538Z,98.67
2022-12-01T21:45:22.072Z,98.88
2022-12-01T21:47:48.664Z,98.35
2022-12-01T21:50:19.453Z,98.78
2022-12-01T21:52:46.798Z,99.20
2022-12-01T21:55:35.726Z,98.46
2022-12-01T21:58:02.410Z,98.43
2022-12-01T22:00:31.103Z,98.80
2022-12-01T22:03:05.470Z,98.98
2022-12-01T22:05:37.634Z,98.93
2022-12-01T22:08:15.716Z,98.71
2022-12-01T22:11:01.499Z,98.90
2022-12-01T22:13:38.324Z,98.94
2022-12-01T22:16:05.196Z,98.91
2022-12-01T22:18:36.292Z,98.52
2022-12-01T22:21:33.105Z,98.69
2022-12-01T22:24:14.407Z,98.66
2022-12-01T22:26:45.992Z,98.60
2022-12-01T22:29:24.690Z,98.91
2022-12-01T22:31:51.933Z,98.70
2022-12-01T22:34:20.093Z,99.17
2022-12-01T22:36:46.855Z,98.92
2022-12-01T22:39:28.818Z,99.23
2022-12-01T22:42:00.198Z,99.51
2022-12-01T22:44:30.083Z,99.44
2022-12-01T22:47:00.412Z,99.49
2022-12-01T22:49:26.998Z,99.71
2022-12-01T22:51:59.721Z,100.00
2022-12-01T22:54:34.800Z,99.49
2022-12-01T22:57:28.602Z,99.49
2022-12-01T22:59:55.534Z,99.75
2022-12-01T23:02:24.468Z,99.77
2022-12-01T23:04:54.982Z,99.64
2022-12-01T23:07:31.153Z,99.27
2022-12-01T23:10:05.334Z,99.40
2022-12-01T23:12:34.855Z,99.48
2022-12-01T23:15:22.379Z,99.58
2022-12-01T23:17:49.620Z,99.48
2022-12-01T23:20:30.705Z,99.71
2022-12-01T23:23:00.402Z,99.93
2022-12-01T23:25:27.931Z,99.85
2022-12-01T23:27:59.213Z,99.61
2022-12-01T23:30:26.488Z,99.68
2022-12-01T23:33:02.786Z,100.00
2022-12-01T23:35:29.592Z,100.00
2022-12-01T23:37:56.241Z,99.34
2022-12-01T23:40:29.959Z,99.56
2022-12-01T23:43:10.007Z,99.53
2022-12-01T23:45:36.955Z,99.82
2022-12-01T23:48:10.824Z,99.73
2022-12-01T23:50:37.799Z,99.24
2022-12-01T23:53:04.471Z,99.25
2022-12-01T23:55:31.658Z,99.56
2022-12-01T23:57:59.618Z,99.04
